createdAt,value
2023-04-24T00:01:46.733Z,11.90
2023-04-24T00:04:17.592Z,11.80
2023-04-24T00:06:50.526Z,11.80
2023-04-24T00:09:18.718Z,11.80
2023-04-24T00:11:47.002Z,11.80
2023-04-24T00:14:15.063Z,11.70
2023-04-24T00:16:43.224Z,11.70
2023-04-24T00:19:12.945Z,11.60
2023-04-24T00:21:41.923Z,11.60
2023-04-24T00:24:11.424Z,11.50
2023-04-24T00:26:39.782Z,11.60
2023-04-24T00:29:07.826Z,11.60
2023-04-24T00:31:36.356Z,11.50
2023-04-24T00:34:05.188Z,11.50
2023-04-24T00:36:33.512Z,11.50
2023-04-24T00:39:01.791Z,11.50
2023-04-24T00:41:31.647Z,11.40
2023-04-24T00:43:59.819Z,11.30
2023-04-24T00:46:28.043Z,11.30
2023-04-24T00:48:57.743Z,11.30
2023-04-24T00:51:26.444Z,11.40
2023-04-24T00:53:54.543Z,11.50
2023-04-24T00:56:22.663Z,11.50
2023-04-24T00:58:52.590Z,11.40
2023-04-24T01:01:21.808Z,11.40
2023-04-24T01:03:51.237Z,11.50
2023-04-24T01:06:20.252Z,11.50
2023-04-24T01:08:49.187Z,11.00
2023-04-24T01:11:17.424Z,11.60
2023-04-24T01:13:47.871Z,11.60
2023-04-24T01:16:18.431Z,11.60
2023-04-24T01:18:46.885Z,11.50
2023-04-24T01:21:15.815Z,11.50
2023-04-24T01:23:45.328Z,11.50
2023-04-24T01:26:13.669Z,11.40
2023-04-24T01:28:42.030Z,11.40
2023-04-24T01:31:10.117Z,11.40
2023-04-24T01:33:38.196Z,11.30
2023-04-24T01:36:06.723Z,11.30
2023-04-24T01:38:34.830Z,11.30
2023-04-24T01:41:04.341Z,11.20
2023-04-24T01:43:32.495Z,11.30
2023-04-24T01:46:00.628Z,11.30
2023-04-24T01:48:28.947Z,11.30
2023-04-24T01:50:57.514Z,11.20
2023-04-24T01:53:25.636Z,11.10
2023-04-24T01:55:53.713Z,11.10
2023-04-24T01:58:23.563Z,11.10
2023-04-24T02:00:51.625Z,11.00
2023-04-24T02:03:19.727Z,10.90
2023-04-24T02:05:50.657Z,10.90
2023-04-24T02:08:18.871Z,11.00
2023-04-24T02:10:46.915Z,10.90
2023-04-24T02:13:15.013Z,11.00
2023-04-24T02:15:44.451Z,10.90
2023-04-24T02:18:13.771Z,10.90
2023-04-24T02:20:41.918Z,11.00
2023-04-24T02:23:10.084Z,10.90
2023-04-24T02:25:38.149Z,11.00
2023-04-24T02:28:06.178Z,10.90
2023-04-24T02:30:35.887Z,10.90
2023-04-24T02:33:05.523Z,10.90
2023-04-24T02:35:33.664Z,10.90
2023-04-24T02:38:01.872Z,10.90
2023-04-24T02:40:29.941Z,10.90
2023-04-24T02:42:58.004Z,10.90
2023-04-24T02:45:26.172Z,10.80
2023-04-24T02:47:55.526Z,10.90
2023-04-24T02:50:25.767Z,10.90
2023-04-24T02:52:53.854Z,10.90
2023-04-24T02:55:22.138Z,11.00
2023-04-24T02:57:50.319Z,10.90
2023-04-24T03:00:18.574Z,10.90
2023-04-24T03:02:46.795Z,10.80
2023-04-24T03:05:15.144Z,10.80
2023-04-24T03:07:44.618Z,10.80
2023-04-24T03:10:12.689Z,10.80
2023-04-24T03:12:40.841Z,10.80
2023-04-24T03:15:09.661Z,10.80
2023-04-24T03:17:39.085Z,10.70
2023-04-24T03:20:09.077Z,10.80
2023-04-24T03:22:37.774Z,10.80
2023-04-24T03:25:10.848Z,10.70
2023-04-24T03:27:40.278Z,10.70
2023-04-24T03:30:27.087Z,10.60
2023-04-24T03:32:59.954Z,10.60
2023-04-24T03:35:31.554Z,10.60
2023-04-24T03:38:05.196Z,10.60
2023-04-24T03:40:52.978Z,10.50
2023-04-24T03:43:43.870Z,10.50
2023-04-24T03:46:12.465Z,10.50
2023-04-24T03:48:45.518Z,10.50
2023-04-24T03:51:14.978Z,10.50
2023-04-24T03:53:46.600Z,10.40
2023-04-24T03:56:20.834Z,10.30
2023-04-24T03:58:49.132Z,10.20
2023-04-24T04:01:17.960Z,10.20
2023-04-24T04:03:54.965Z,10.20
2023-04-24T04:06:26.083Z,10.10
2023-04-24T04:08:55.641Z,10.10
2023-04-24T04:11:25.324Z,10.10
2023-04-24T04:13:53.448Z,10.10
2023-04-24T04:16:23.559Z,10.10
2023-04-24T04:18:56.467Z,10.10
2023-04-24T04:21:27.785Z,10.20
2023-04-24T04:24:06.374Z,10.20
2023-04-24T04:26:48.961Z,10.30
2023-04-24T04:29:27.457Z,10.20
2023-04-24T04:31:56.247Z,10.20
2023-04-24T04:34:25.157Z,10.30
2023-04-24T04:36:54.202Z,10.30
2023-04-24T04:39:39.103Z,10.40
2023-04-24T04:42:16.644Z,10.30
2023-04-24T04:44:45.838Z,10.30
2023-04-24T04:47:27.989Z,10.30
2023-04-24T04:49:58.055Z,10.30
2023-04-24T04:52:29.167Z,10.40
2023-04-24T04:55:07.461Z,10.30
2023-04-24T04:58:01.300Z,10.30
2023-04-24T05:00:30.018Z,10.30
2023-04-24T05:03:09.086Z,10.30
2023-04-24T05:05:46.817Z,10.30
2023-04-24T05:08:26.493Z,10.30
2023-04-24T05:10:55.878Z,10.30
2023-04-24T05:13:38.478Z,10.30
2023-04-24T05:16:13.812Z,10.30
2023-04-24T05:18:42.873Z,10.30
2023-04-24T05:21:14.094Z,10.40
2023-04-24T05:23:45.754Z,10.40
2023-04-24T05:26:17.402Z,10.40
2023-04-24T05:28:47.445Z,10.40
2023-04-24T05:31:18.729Z,10.40
2023-04-24T05:33:47.383Z,10.40
2023-04-24T05:36:15.914Z,10.40
2023-04-24T05:38:44.392Z,10.50
2023-04-24T05:41:12.936Z,10.50
2023-04-24T05:43:40.970Z,10.50
2023-04-24T05:46:10.779Z,10.60
2023-04-24T05:48:38.830Z,10.50
2023-04-24T05:51:07.317Z,10.50
2023-04-24T05:53:35.707Z,10.50
2023-04-24T05:56:04.064Z,10.50
2023-04-24T05:58:33.326Z,10.60
2023-04-24T06:01:02.597Z,10.50
2023-04-24T06:03:32.654Z,10.60
2023-04-24T06:06:00.962Z,10.70
2023-04-24T06:08:29.290Z,10.70
2023-04-24T06:10:58.173Z,10.80
2023-04-24T06:13:27.336Z,10.80
2023-04-24T06:16:24.013Z,10.70
2023-04-24T06:19:00.691Z,10.70
2023-04-24T06:21:28.941Z,10.80
2023-04-24T06:23:59.298Z,10.80
2023-04-24T06:26:27.587Z,10.80
2023-04-24T06:28:56.203Z,10.80
2023-04-24T06:31:24.235Z,10.80
2023-04-24T06:33:52.786Z,10.80
2023-04-24T06:36:22.218Z,10.90
2023-04-24T06:38:50.812Z,10.80
2023-04-24T06:41:18.868Z,10.80
2023-04-24T06:43:47.270Z,10.90
2023-04-24T06:46:15.521Z,10.90
2023-04-24T06:48:43.768Z,11.00
2023-04-24T06:51:11.888Z,11.00
2023-04-24T06:53:41.486Z,11.00
2023-04-24T06:56:09.602Z,11.10
2023-04-24T06:58:37.865Z,11.10
2023-04-24T07:01:06.009Z,11.10
2023-04-24T07:03:34.618Z,11.20
2023-04-24T07:06:04.205Z,11.30
2023-04-24T07:08:32.973Z,11.30
2023-04-24T07:11:02.721Z,11.30
2023-04-24T07:13:30.909Z,11.40
2023-04-24T07:15:59.185Z,11.50
2023-04-24T07:18:30.893Z,11.50
2023-04-24T07:21:00.397Z,11.60
2023-04-24T07:23:28.480Z,11.50
2023-04-24T07:25:56.710Z,11.50
2023-04-24T07:28:26.552Z,11.50
2023-04-24T07:30:55.856Z,11.50
2023-04-24T07:33:23.991Z,11.50
2023-04-24T07:35:52.371Z,11.50
2023-04-24T07:38:22.739Z,11.50
2023-04-24T07:40:51.075Z,11.50
2023-04-24T07:43:19.490Z,11.50
2023-04-24T07:45:48.919Z,11.50
2023-04-24T07:48:17.369Z,11.50
2023-04-24T07:50:46.272Z,11.60
2023-04-24T07:53:14.291Z,11.60
2023-04-24T07:55:42.712Z,11.60
2023-04-24T07:58:10.801Z,11.60
2023-04-24T08:00:39.372Z,11.70
2023-04-24T08:03:08.979Z,11.70
2023-04-24T08:05:39.434Z,11.70
2023-04-24T08:08:09.044Z,11.60
2023-04-24T08:10:37.382Z,11.70
2023-04-24T08:13:05.571Z,11.70
2023-04-24T08:15:33.778Z,11.80
2023-04-24T08:18:02.485Z,11.80
2023-04-24T08:20:32.032Z,11.80
2023-04-24T08:23:00.315Z,11.50
2023-04-24T08:25:28.409Z,11.70
2023-04-24T08:27:56.878Z,11.60
2023-04-24T08:30:24.950Z,12.20
2023-04-24T08:32:53.624Z,11.40
2023-04-24T08:35:21.662Z,11.30
2023-04-24T08:37:51.019Z,11.30
2023-04-24T08:40:19.076Z,11.30
2023-04-24T08:42:47.504Z,11.30
2023-04-24T08:45:15.687Z,11.30
2023-04-24T08:47:45.091Z,11.30
2023-04-24T08:50:13.885Z,11.40
2023-04-24T08:52:43.433Z,11.40
2023-04-24T08:55:13.280Z,11.50
2023-04-24T08:57:41.615Z,11.50
2023-04-24T09:00:11.915Z,11.60
2023-04-24T09:02:43.958Z,11.60
2023-04-24T09:05:12.670Z,11.70
2023-04-24T09:07:41.303Z,11.70
2023-04-24T09:10:09.958Z,11.70
2023-04-24T09:12:39.646Z,11.60
2023-04-24T09:15:09.051Z,11.60
2023-04-24T09:17:37.631Z,11.50
2023-04-24T09:20:06.553Z,11.60
2023-04-24T09:22:35.075Z,11.60
2023-04-24T09:25:04.388Z,11.70
2023-04-24T09:27:33.174Z,11.70
2023-04-24T09:30:03.082Z,11.70
2023-04-24T09:32:34.436Z,11.80
2023-04-24T09:35:09.767Z,11.90
2023-04-24T09:37:39.094Z,11.90
2023-04-24T09:40:11.080Z,11.90
2023-04-24T09:42:39.629Z,12.00
2023-04-24T09:45:15.461Z,12.00
2023-04-24T09:47:44.168Z,12.00
2023-04-24T09:50:13.399Z,12.10
2023-04-24T09:52:42.745Z,12.10
2023-04-24T09:55:18.845Z,12.20
2023-04-24T09:57:55.693Z,12.20
2023-04-24T10:00:26.244Z,12.20
2023-04-24T10:03:01.818Z,12.20
2023-04-24T10:05:30.812Z,12.30
2023-04-24T10:08:00.053Z,12.30
2023-04-24T10:10:28.198Z,12.40
2023-04-24T10:12:57.213Z,12.40
2023-04-24T10:15:27.882Z,12.40
2023-04-24T10:17:56.512Z,12.40
2023-04-24T10:20:25.469Z,12.40
2023-04-24T10:22:55.059Z,12.40
2023-04-24T10:25:24.059Z,12.40
2023-04-24T10:27:52.906Z,12.50
2023-04-24T10:30:22.119Z,12.60
2023-04-24T10:32:51.759Z,12.70
2023-04-24T10:35:23.431Z,12.70
2023-04-24T10:37:52.846Z,12.70
2023-04-24T10:40:28.015Z,12.70
2023-04-24T10:42:58.091Z,12.70
2023-04-24T10:45:27.431Z,12.70
2023-04-24T10:47:58.586Z,12.40
2023-04-24T10:50:28.313Z,11.90
2023-04-24T10:53:06.540Z,11.50
2023-04-24T10:55:45.130Z,11.20
2023-04-24T10:58:13.588Z,10.80
2023-04-24T11:00:42.653Z,10.70
2023-04-24T11:03:26.658Z,10.60
2023-04-24T11:05:59.195Z,10.60
2023-04-24T11:08:28.116Z,10.70
2023-04-24T11:10:57.782Z,10.80
2023-04-24T11:13:26.674Z,10.90
2023-04-24T11:16:13.758Z,11.00
2023-04-24T11:18:46.250Z,11.30
2023-04-24T11:21:18.094Z,11.40
2023-04-24T11:23:46.589Z,11.60
2023-04-24T11:26:15.716Z,11.80
2023-04-24T11:28:47.683Z,11.90
2023-04-24T11:31:34.994Z,12.00
2023-04-24T11:34:08.989Z,12.10
2023-04-24T11:36:38.092Z,12.10
2023-04-24T11:39:06.414Z,12.20
2023-04-24T11:41:35.194Z,12.30
2023-04-24T11:44:04.991Z,12.40
2023-04-24T11:46:33.623Z,12.50
2023-04-24T11:49:02.024Z,12.70
2023-04-24T11:51:43.817Z,12.90
2023-04-24T11:54:19.637Z,13.10
2023-04-24T11:56:48.264Z,13.30
2023-04-24T11:59:16.774Z,13.40
2023-04-24T12:01:45.463Z,13.50
2023-04-24T12:04:14.160Z,13.60
2023-04-24T12:07:00.515Z,13.70
2023-04-24T12:09:28.832Z,13.80
2023-04-24T12:11:57.946Z,13.80
2023-04-24T12:14:27.174Z,13.90
2023-04-24T12:16:55.337Z,14.00
2023-04-24T12:19:25.131Z,14.00
2023-04-24T12:22:04.650Z,14.10
2023-04-24T12:24:33.439Z,14.20
2023-04-24T12:27:02.435Z,14.30
2023-04-24T12:29:31.458Z,14.50
2023-04-24T12:31:59.570Z,14.60
2023-04-24T12:34:28.102Z,14.70
2023-04-24T12:36:56.288Z,14.70
2023-04-24T12:39:27.851Z,14.70
2023-04-24T12:41:59.226Z,14.90
2023-04-24T12:44:35.327Z,14.90
2023-04-24T12:47:03.602Z,14.90
2023-04-24T12:49:32.504Z,15.00
2023-04-24T12:52:00.553Z,15.10
2023-04-24T12:54:34.337Z,15.00
2023-04-24T12:57:02.461Z,14.90
2023-04-24T12:59:30.548Z,14.70
2023-04-24T13:01:58.928Z,14.50
2023-04-24T13:04:27.074Z,14.20
2023-04-24T13:06:55.635Z,14.10
2023-04-24T13:09:24.737Z,13.90
2023-04-24T13:11:54.785Z,13.80
2023-04-24T13:14:22.918Z,13.70
2023-04-24T13:16:51.357Z,13.70
2023-04-24T13:19:19.989Z,13.80
2023-04-24T13:21:48.413Z,13.90
2023-04-24T13:24:16.914Z,14.00
2023-04-24T13:26:45.536Z,14.20
2023-04-24T13:29:14.998Z,14.30
2023-04-24T13:31:43.528Z,14.60
2023-04-24T13:34:11.927Z,14.70
2023-04-24T13:36:40.261Z,14.60
2023-04-24T13:39:08.622Z,14.50
2023-04-24T13:41:37.153Z,14.50
2023-04-24T13:44:06.133Z,14.60
2023-04-24T13:46:35.774Z,14.70
2023-04-24T13:49:05.851Z,15.70
2023-04-24T13:51:34.456Z,14.80
2023-04-24T13:54:02.758Z,14.80
2023-04-24T13:56:30.933Z,14.90
2023-04-24T13:58:59.734Z,14.90
2023-04-24T14:01:27.876Z,14.80
2023-04-24T14:03:59.130Z,14.70
2023-04-24T14:06:27.373Z,14.60
2023-04-24T14:08:55.856Z,14.50
2023-04-24T14:11:23.999Z,14.40
2023-04-24T14:13:52.472Z,14.30
2023-04-24T14:16:20.592Z,14.20
2023-04-24T14:18:48.981Z,14.20
2023-04-24T14:21:18.848Z,14.20
2023-04-24T14:23:47.748Z,14.40
2023-04-24T14:26:15.803Z,14.40
2023-04-24T14:28:44.292Z,14.40
2023-04-24T14:31:12.544Z,14.40
2023-04-24T14:33:40.603Z,14.40
2023-04-24T14:36:09.177Z,14.40
2023-04-24T14:38:39.151Z,14.40
2023-04-24T14:41:13.904Z,14.50
2023-04-24T14:43:43.307Z,14.50
2023-04-24T14:46:11.623Z,14.50
2023-04-24T14:48:40.439Z,14.60
2023-04-24T14:51:08.514Z,14.60
2023-04-24T14:53:36.683Z,14.60
2023-04-24T14:56:06.494Z,14.50
2023-04-24T14:58:35.055Z,14.50
2023-04-24T15:01:03.134Z,14.50
2023-04-24T15:03:32.036Z,14.40
2023-04-24T15:06:00.610Z,14.40
2023-04-24T15:08:28.645Z,14.40
2023-04-24T15:10:57.499Z,14.40
2023-04-24T15:13:27.605Z,14.40
2023-04-24T15:15:56.427Z,14.40
2023-04-24T15:18:24.701Z,14.40
2023-04-24T15:20:52.746Z,14.40
2023-04-24T15:23:20.937Z,14.30
2023-04-24T15:25:49.227Z,14.20
2023-04-24T15:28:18.876Z,14.20
2023-04-24T15:30:48.250Z,14.20
2023-04-24T15:33:16.454Z,14.20
2023-04-24T15:35:44.696Z,14.20
2023-04-24T15:38:12.776Z,14.30
2023-04-24T15:40:40.916Z,14.20
2023-04-24T15:43:09.249Z,14.20
2023-04-24T15:45:37.703Z,14.10
2023-04-24T15:48:08.147Z,14.10
2023-04-24T15:50:36.284Z,14.00
2023-04-24T15:53:04.426Z,13.90
2023-04-24T15:55:33.562Z,13.80
2023-04-24T15:58:01.916Z,13.80
2023-04-24T16:00:34.424Z,13.80
2023-04-24T16:03:03.288Z,13.90
2023-04-24T16:05:32.906Z,13.90
2023-04-24T16:08:01.105Z,13.80
2023-04-24T16:10:29.577Z,13.80
2023-04-24T16:12:58.247Z,13.70
2023-04-24T16:15:26.240Z,13.70
2023-04-24T16:17:54.379Z,13.60
2023-04-24T16:20:22.416Z,13.70
2023-04-24T16:22:51.923Z,13.70
2023-04-24T16:25:20.073Z,13.70
2023-04-24T16:27:48.755Z,13.70
2023-04-24T16:30:16.879Z,13.60
2023-04-24T16:32:44.982Z,13.50
2023-04-24T16:35:13.167Z,13.50
2023-04-24T16:37:41.594Z,13.40
2023-04-24T16:40:12.310Z,13.40
2023-04-24T16:42:40.585Z,13.40
2023-04-24T16:45:09.477Z,13.30
2023-04-24T16:47:37.654Z,13.30
2023-04-24T16:50:06.491Z,13.20
2023-04-24T16:52:34.509Z,13.20
2023-04-24T16:55:02.495Z,13.20
2023-04-24T16:57:32.650Z,13.20
2023-04-24T17:00:00.714Z,13.10
2023-04-24T17:02:29.264Z,13.20
2023-04-24T17:04:57.537Z,13.10
2023-04-24T17:07:25.825Z,13.20
2023-04-24T17:09:53.990Z,13.20
2023-04-24T17:12:22.076Z,13.20
2023-04-24T17:14:51.452Z,13.10
2023-04-24T17:17:20.621Z,13.10
2023-04-24T17:19:48.785Z,13.00
2023-04-24T17:22:16.798Z,13.00
2023-04-24T17:24:45.127Z,12.90
2023-04-24T17:27:15.286Z,12.90
2023-04-24T17:29:43.725Z,12.90
2023-04-24T17:32:13.191Z,12.90
2023-04-24T17:34:41.550Z,12.90
2023-04-24T17:37:09.956Z,12.80
2023-04-24T17:39:37.980Z,12.80
2023-04-24T17:42:06.266Z,12.70
2023-04-24T17:44:34.299Z,12.70
2023-04-24T17:47:03.900Z,12.70
2023-04-24T17:49:38.672Z,12.60
2023-04-24T17:52:08.012Z,12.60
2023-04-24T17:54:36.943Z,12.60
2023-04-24T17:57:05.043Z,12.60
2023-04-24T17:59:33.217Z,12.50
2023-04-24T18:02:01.390Z,12.60
2023-04-24T18:04:29.819Z,12.50
2023-04-24T18:06:59.256Z,12.50
2023-04-24T18:09:27.504Z,12.50
2023-04-24T18:11:57.094Z,12.50
2023-04-24T18:14:25.728Z,12.40
2023-04-24T18:16:53.827Z,12.40
2023-04-24T18:19:22.487Z,12.30
2023-04-24T18:21:50.705Z,12.30
2023-04-24T18:24:22.271Z,12.30
2023-04-24T18:26:50.406Z,12.20
2023-04-24T18:29:18.385Z,12.20
2023-04-24T18:31:46.700Z,12.10
2023-04-24T18:34:14.771Z,12.20
2023-04-24T18:36:42.907Z,12.10
2023-04-24T18:39:11.058Z,12.10
2023-04-24T18:41:40.539Z,12.10
2023-04-24T18:44:09.816Z,12.10
2023-04-24T18:46:41.440Z,12.10
2023-04-24T18:49:09.831Z,12.00
2023-04-24T18:51:50.207Z,12.00
2023-04-24T18:54:21.165Z,12.00
2023-04-24T18:56:51.473Z,12.80
2023-04-24T18:59:19.813Z,12.00
2023-04-24T19:01:48.311Z,12.00
2023-04-24T19:04:16.723Z,12.00
2023-04-24T19:06:44.713Z,11.90
2023-04-24T19:09:12.712Z,12.00
2023-04-24T19:11:41.655Z,12.00
2023-04-24T19:14:11.183Z,11.40
2023-04-24T19:16:39.249Z,11.90
2023-04-24T19:19:07.357Z,12.00
2023-04-24T19:21:35.590Z,12.00
2023-04-24T19:24:03.893Z,11.90
2023-04-24T19:26:32.108Z,12.00
2023-04-24T19:29:00.138Z,12.00
2023-04-24T19:31:29.729Z,12.00
2023-04-24T19:33:57.824Z,12.00
2023-04-24T19:36:25.848Z,12.10
2023-04-24T19:38:54.029Z,12.10
2023-04-24T19:41:22.116Z,12.00
2023-04-24T19:43:50.740Z,12.00
2023-04-24T19:46:18.917Z,12.00
2023-04-24T19:48:48.731Z,12.10
2023-04-24T19:51:17.212Z,12.10
2023-04-24T19:53:45.871Z,12.10
2023-04-24T19:56:13.937Z,12.10
2023-04-24T19:58:41.982Z,12.10
2023-04-24T20:01:10.077Z,12.10
2023-04-24T20:03:38.344Z,12.10
2023-04-24T20:06:07.922Z,12.10
2023-04-24T20:08:38.806Z,12.10
2023-04-24T20:11:07.018Z,12.10
2023-04-24T20:13:35.038Z,11.90
2023-04-24T20:16:04.299Z,11.70
2023-04-24T20:18:32.550Z,11.40
2023-04-24T20:21:00.926Z,11.10
2023-04-24T20:23:30.522Z,10.80
2023-04-24T20:25:58.916Z,10.60
2023-04-24T20:28:27.334Z,10.50
2023-04-24T20:30:55.431Z,10.40
2023-04-24T20:33:23.695Z,10.40
2023-04-24T20:35:52.364Z,10.40
2023-04-24T20:38:22.316Z,10.40
2023-04-24T20:43:26.576Z,10.40
2023-04-24T20:45:57.808Z,10.40
2023-04-24T20:48:26.778Z,10.30
2023-04-24T20:50:54.949Z,10.20
2023-04-24T20:53:23.234Z,10.10
2023-04-24T20:55:53.138Z,10.00
2023-04-24T20:58:22.115Z,9.90
2023-04-24T21:00:50.638Z,9.90
2023-04-24T21:03:19.328Z,9.90
2023-04-24T21:05:47.622Z,9.90
2023-04-24T21:08:16.677Z,9.90
2023-04-24T21:10:44.771Z,9.90
2023-04-24T21:13:14.356Z,9.80
2023-04-24T21:15:42.431Z,9.80
2023-04-24T21:18:10.966Z,9.90
2023-04-24T21:20:39.071Z,9.90
2023-04-24T21:23:07.266Z,10.00
2023-04-24T21:25:35.462Z,10.00
2023-04-24T21:28:04.186Z,10.10
2023-04-24T21:30:33.783Z,10.10
2023-04-24T21:33:02.338Z,10.00
2023-04-24T21:35:30.826Z,10.00
2023-04-24T21:37:59.230Z,9.90
2023-04-24T21:40:27.355Z,10.00
2023-04-24T21:42:56.072Z,9.90
2023-04-24T21:45:24.981Z,10.00
2023-04-24T21:47:54.705Z,9.90
2023-04-24T21:50:22.831Z,9.90
2023-04-24T21:52:50.908Z,9.80
2023-04-24T21:55:19.206Z,9.80
2023-04-24T21:57:48.536Z,9.70
2023-04-24T22:00:17.264Z,9.80
2023-04-24T22:02:47.928Z,9.80
2023-04-24T22:05:17.796Z,9.70
2023-04-24T22:07:48.423Z,9.70
2023-04-24T22:10:19.149Z,9.70
2023-04-24T22:12:47.483Z,9.60
2023-04-24T22:15:16.074Z,9.60
2023-04-24T22:17:44.476Z,9.70
2023-04-24T22:20:13.855Z,9.80
2023-04-24T22:22:43.285Z,9.90
2023-04-24T22:25:11.736Z,10.00
2023-04-24T22:27:39.777Z,9.90
2023-04-24T22:30:09.212Z,9.80
2023-04-24T22:32:37.575Z,9.70
2023-04-24T22:35:06.619Z,9.60
2023-04-24T22:37:34.917Z,9.40
2023-04-24T22:40:05.673Z,9.50
2023-04-24T22:42:33.786Z,9.50
2023-04-24T22:45:02.895Z,9.50
2023-04-24T22:47:31.255Z,9.40
2023-04-24T22:49:59.859Z,9.40
2023-04-24T22:52:28.762Z,9.40
2023-04-24T22:54:56.894Z,9.40
2023-04-24T22:57:26.385Z,9.40
2023-04-24T22:59:54.916Z,9.40
2023-04-24T23:02:24.059Z,9.40
2023-04-24T23:04:54.382Z,9.40
2023-04-24T23:07:22.417Z,9.40
2023-04-24T23:09:50.746Z,9.40
2023-04-24T23:12:18.949Z,9.40
2023-04-24T23:14:48.340Z,9.30
2023-04-24T23:17:16.897Z,9.30
2023-04-24T23:19:44.923Z,9.30
2023-04-24T23:22:13.470Z,9.30
2023-04-24T23:24:41.523Z,9.30
2023-04-24T23:27:09.892Z,9.30
2023-04-24T23:29:37.904Z,9.30
2023-04-24T23:32:08.080Z,9.30
2023-04-24T23:34:39.207Z,9.20
2023-04-24T23:37:08.049Z,9.30
2023-04-24T23:39:36.227Z,9.20
2023-04-24T23:42:04.581Z,9.20
2023-04-24T23:44:32.623Z,9.20
2023-04-24T23:47:00.911Z,9.10
2023-04-24T23:49:30.333Z,9.10
2023-04-24T23:51:58.747Z,9.10
2023-04-24T23:54:27.031Z,9.20
2023-04-24T23:56:55.210Z,9.10
2023-04-24T23:59:23.837Z,9.00
